createdAt,value
2018-05-12T00:00:01.106Z,13.80
2018-05-12T00:02:28.684Z,13.80
2018-05-12T00:04:56.957Z,13.80
2018-05-12T00:07:25.223Z,13.80
2018-05-12T00:09:53.516Z,13.80
2018-05-12T00:12:21.031Z,13.80
2018-05-12T00:14:48.542Z,13.80
2018-05-12T00:17:16.059Z,13.90
2018-05-12T00:19:43.542Z,13.90
2018-05-12T00:22:11.097Z,13.90
2018-05-12T00:24:38.593Z,14.00
2018-05-12T00:27:06.112Z,13.90
2018-05-12T00:29:33.627Z,13.90
2018-05-12T00:32:01.127Z,13.90
2018-05-12T00:34:28.664Z,13.90
2018-05-12T00:36:56.922Z,13.90
2018-05-12T00:39:24.415Z,13.90
2018-05-12T00:41:51.949Z,13.90
2018-05-12T00:44:20.198Z,13.90
2018-05-12T00:46:47.728Z,13.80
2018-05-12T00:49:15.232Z,13.90
2018-05-12T00:51:43.487Z,13.90
2018-05-12T00:54:11.030Z,13.80
2018-05-12T00:56:38.634Z,13.90
2018-05-12T00:59:06.910Z,13.80
2018-05-12T01:01:35.190Z,13.80
2018-05-12T01:04:02.694Z,13.70
2018-05-12T01:06:30.210Z,13.80
2018-05-12T01:08:57.722Z,13.80
2018-05-12T01:11:25.322Z,13.80
2018-05-12T01:13:52.857Z,13.80
2018-05-12T01:16:21.120Z,13.80
2018-05-12T01:18:48.651Z,13.70
2018-05-12T01:21:16.154Z,13.80
2018-05-12T01:23:44.421Z,13.70
2018-05-12T01:26:12.839Z,13.70
2018-05-12T01:28:40.342Z,13.60
2018-05-12T01:31:07.937Z,13.70
2018-05-12T01:33:35.447Z,13.60
2018-05-12T01:36:02.941Z,13.70
2018-05-12T01:38:31.222Z,13.70
2018-05-12T01:40:58.719Z,13.60
2018-05-12T01:43:26.330Z,13.60
2018-05-12T01:45:54.669Z,13.60
2018-05-12T01:48:22.152Z,13.50
2018-05-12T01:50:50.427Z,13.60
2018-05-12T01:53:18.811Z,13.60
2018-05-12T01:55:47.065Z,13.60
2018-05-12T01:58:14.656Z,13.50
2018-05-12T02:00:42.171Z,13.50
2018-05-12T02:03:09.728Z,13.50
2018-05-12T02:05:37.279Z,13.40
2018-05-12T02:08:04.777Z,13.40
2018-05-12T02:10:33.040Z,13.40
2018-05-12T02:13:01.326Z,13.40
2018-05-12T02:15:29.591Z,13.40
2018-05-12T02:17:57.979Z,13.30
2018-05-12T02:20:25.470Z,13.30
2018-05-12T02:22:52.971Z,13.30
2018-05-12T02:25:21.268Z,13.20
2018-05-12T02:27:48.758Z,13.20
2018-05-12T02:30:16.468Z,13.20
2018-05-12T02:32:44.036Z,13.20
2018-05-12T02:35:11.594Z,13.10
2018-05-12T02:37:39.885Z,13.10
2018-05-12T02:40:07.453Z,13.00
2018-05-12T02:42:34.939Z,13.10
2018-05-12T02:45:02.460Z,13.10
2018-05-12T02:47:29.989Z,13.10
2018-05-12T02:49:58.839Z,13.00
2018-05-12T02:52:26.347Z,13.00
2018-05-12T02:54:53.928Z,13.00
2018-05-12T02:57:21.448Z,12.90
2018-05-12T02:59:48.965Z,12.90
2018-05-12T03:02:16.588Z,12.90
2018-05-12T03:04:44.121Z,12.90
2018-05-12T03:07:12.382Z,12.90
2018-05-12T03:09:40.686Z,13.00
2018-05-12T03:12:08.188Z,12.90
2018-05-12T03:14:35.830Z,12.90
2018-05-12T03:17:03.356Z,12.90
2018-05-12T03:19:30.868Z,12.90
2018-05-12T03:21:58.469Z,12.90
2018-05-12T03:24:26.771Z,13.00
2018-05-12T03:26:54.264Z,13.00
2018-05-12T03:29:23.269Z,13.00
2018-05-12T03:31:50.802Z,13.00
2018-05-12T03:34:18.923Z,13.00
2018-05-12T03:36:47.170Z,13.10
2018-05-12T03:39:14.703Z,13.00
2018-05-12T03:41:42.320Z,13.10
2018-05-12T03:44:09.810Z,13.20
2018-05-12T03:46:37.347Z,13.20
2018-05-12T03:49:04.837Z,13.10
2018-05-12T03:51:32.356Z,13.20
2018-05-12T03:53:59.846Z,13.20
2018-05-12T03:56:27.348Z,13.30
2018-05-12T03:58:55.635Z,13.40
2018-05-12T04:01:23.197Z,13.30
2018-05-12T04:03:50.732Z,13.40
2018-05-12T04:06:30.896Z,13.50
2018-05-12T04:09:11.246Z,13.50
2018-05-12T04:11:51.388Z,13.50
2018-05-12T04:14:18.881Z,13.40
2018-05-12T04:16:46.396Z,13.50
2018-05-12T04:19:13.987Z,13.50
2018-05-12T04:21:41.494Z,13.40
2018-05-12T04:24:08.999Z,13.50
2018-05-12T04:26:36.496Z,13.60
2018-05-12T04:29:04.014Z,13.60
2018-05-12T04:31:31.518Z,13.70
2018-05-12T04:33:59.016Z,13.70
2018-05-12T04:36:26.544Z,13.80
2018-05-12T04:38:54.030Z,13.80
2018-05-12T04:41:22.308Z,13.80
2018-05-12T04:43:49.863Z,13.70
2018-05-12T04:46:17.392Z,13.90
2018-05-12T04:48:44.998Z,13.90
2018-05-12T04:51:12.476Z,14.00
2018-05-12T04:53:40.002Z,14.00
2018-05-12T04:56:21.131Z,14.00
2018-05-12T04:59:01.320Z,14.10
2018-05-12T05:01:28.896Z,14.10
2018-05-12T05:03:56.417Z,14.20
2018-05-12T05:06:24.684Z,14.30
2018-05-12T05:08:52.228Z,14.20
2018-05-12T05:11:19.718Z,14.40
2018-05-12T05:13:47.966Z,14.70
2018-05-12T05:16:15.491Z,14.60
2018-05-12T05:18:42.965Z,14.80
2018-05-12T05:21:10.573Z,15.10
2018-05-12T05:23:38.114Z,16.10
2018-05-12T05:26:06.380Z,17.50
2018-05-12T05:28:34.658Z,17.70
2018-05-12T05:31:02.919Z,17.20
2018-05-12T05:33:30.426Z,17.20
2018-05-12T05:35:57.922Z,16.90
2018-05-12T05:38:25.452Z,16.70
2018-05-12T05:40:52.935Z,16.50
2018-05-12T05:43:20.435Z,16.40
2018-05-12T05:45:47.978Z,16.30
2018-05-12T05:48:16.249Z,16.30
2018-05-12T05:50:44.503Z,16.30
2018-05-12T05:53:12.038Z,16.30
2018-05-12T05:55:39.530Z,16.30
2018-05-12T05:58:07.822Z,16.30
2018-05-12T06:00:36.098Z,16.40
2018-05-12T06:03:03.578Z,16.30
2018-05-12T06:05:31.058Z,16.40
2018-05-12T06:07:58.698Z,16.50
2018-05-12T06:10:26.221Z,16.50
2018-05-12T06:12:54.504Z,16.50
2018-05-12T06:15:22.080Z,16.40
2018-05-12T06:17:49.598Z,16.50
2018-05-12T06:20:17.911Z,17.60
2018-05-12T06:22:45.395Z,17.60
2018-05-12T06:25:13.020Z,18.40
2018-05-12T06:27:40.512Z,19.40
2018-05-12T06:30:08.022Z,20.40
2018-05-12T06:32:35.579Z,21.50
2018-05-12T06:35:03.011Z,22.50
2018-05-12T06:37:31.286Z,22.70
2018-05-12T06:40:00.221Z,23.00
2018-05-12T06:42:27.739Z,22.90
2018-05-12T06:44:56.007Z,23.40
2018-05-12T06:47:24.284Z,23.30
2018-05-12T06:49:52.534Z,23.60
2018-05-12T06:52:20.052Z,23.50
2018-05-12T06:54:47.550Z,23.60
2018-05-12T06:57:15.049Z,23.50
2018-05-12T06:59:42.623Z,23.80
2018-05-12T07:02:10.152Z,23.80
2018-05-12T07:04:38.436Z,23.90
2018-05-12T07:07:05.946Z,23.80
2018-05-12T07:09:33.459Z,24.20
2018-05-12T07:12:01.015Z,24.40
2018-05-12T07:14:28.562Z,24.20
2018-05-12T07:16:56.849Z,23.50
2018-05-12T07:19:24.402Z,23.50
2018-05-12T07:21:52.661Z,23.80
2018-05-12T07:24:20.915Z,24.30
2018-05-12T07:26:48.432Z,24.30
2018-05-12T07:29:15.918Z,24.90
2018-05-12T07:31:43.422Z,25.30
2018-05-12T07:34:10.912Z,24.90
2018-05-12T07:36:38.528Z,25.00
2018-05-12T07:39:06.079Z,25.10
2018-05-12T07:41:34.463Z,25.40
2018-05-12T07:44:02.018Z,25.40
2018-05-12T07:46:30.283Z,25.40
2018-05-12T07:48:58.537Z,25.60
2018-05-12T07:51:26.086Z,25.50
2018-05-12T07:53:53.688Z,24.70
2018-05-12T07:56:21.242Z,25.10
2018-05-12T07:58:48.732Z,25.20
2018-05-12T08:01:16.260Z,25.20
2018-05-12T08:03:43.763Z,25.70
2018-05-12T08:06:11.276Z,25.90
2018-05-12T08:08:38.762Z,26.00
2018-05-12T08:11:06.278Z,25.40
2018-05-12T08:13:34.523Z,25.50
2018-05-12T08:16:02.104Z,25.50
2018-05-12T08:18:30.382Z,25.70
2018-05-12T08:20:58.655Z,26.10
2018-05-12T08:23:26.907Z,26.40
2018-05-12T08:25:54.431Z,26.30
2018-05-12T08:28:21.952Z,26.50
2018-05-12T08:30:49.508Z,26.20
2018-05-12T08:33:17.062Z,25.50
2018-05-12T08:35:45.342Z,25.90
2018-05-12T08:38:12.890Z,25.80
2018-05-12T08:40:41.155Z,25.00
2018-05-12T08:43:09.439Z,24.90
2018-05-12T08:45:37.691Z,25.70
2018-05-12T08:48:05.230Z,25.70
2018-05-12T08:50:32.735Z,26.20
2018-05-12T08:53:01.002Z,25.80
2018-05-12T08:55:28.571Z,25.80
2018-05-12T08:57:56.081Z,25.70
2018-05-12T09:00:23.602Z,25.40
2018-05-12T09:02:51.095Z,24.60
2018-05-12T09:05:18.691Z,24.80
2018-05-12T09:07:46.956Z,24.60
2018-05-12T09:10:15.238Z,23.50
2018-05-12T09:12:42.772Z,23.50
2018-05-12T09:15:10.254Z,24.10
2018-05-12T09:17:38.510Z,25.30
2018-05-12T09:20:06.809Z,25.60
2018-05-12T09:22:34.323Z,25.50
2018-05-12T09:25:01.890Z,26.00
2018-05-12T09:27:29.401Z,26.30
2018-05-12T09:29:56.958Z,26.10
2018-05-12T09:32:24.488Z,26.10
2018-05-12T09:34:52.771Z,26.00
2018-05-12T09:37:20.374Z,26.00
2018-05-12T09:39:48.571Z,26.10
2018-05-12T09:42:16.094Z,26.00
2018-05-12T09:44:43.762Z,26.70
2018-05-12T09:47:11.231Z,25.90
2018-05-12T09:49:38.767Z,26.10
2018-05-12T09:52:06.265Z,26.30
2018-05-12T09:54:34.540Z,26.30
2018-05-12T09:57:02.831Z,26.60
2018-05-12T09:59:30.329Z,26.60
2018-05-12T10:01:57.946Z,26.20
2018-05-12T10:04:26.210Z,25.80
2018-05-12T10:06:54.480Z,26.30
2018-05-12T10:09:22.797Z,26.70
2018-05-12T10:11:50.332Z,26.60
2018-05-12T10:14:17.840Z,26.40
2018-05-12T10:16:45.464Z,26.70
2018-05-12T10:19:12.979Z,26.70
2018-05-12T10:21:40.572Z,26.40
2018-05-12T10:24:08.125Z,25.80
2018-05-12T10:26:35.617Z,25.50
2018-05-12T10:29:03.129Z,26.10
2018-05-12T10:31:31.420Z,26.70
2018-05-12T10:33:58.930Z,26.70
2018-05-12T10:36:26.439Z,26.80
2018-05-12T10:38:53.962Z,26.80
2018-05-12T10:41:22.354Z,27.00
2018-05-12T10:43:49.841Z,27.00
2018-05-12T10:46:17.439Z,26.40
2018-05-12T10:48:45.029Z,26.60
2018-05-12T10:51:12.591Z,26.50
2018-05-12T10:53:40.146Z,26.80
2018-05-12T10:56:07.653Z,26.30
2018-05-12T10:58:35.144Z,25.90
2018-05-12T11:01:03.475Z,25.90
2018-05-12T11:03:30.972Z,25.90
2018-05-12T11:05:59.226Z,27.30
2018-05-12T11:08:26.743Z,27.20
2018-05-12T11:10:54.243Z,27.60
2018-05-12T11:13:21.762Z,27.30
2018-05-12T11:15:49.319Z,26.80
2018-05-12T11:18:16.816Z,26.60
2018-05-12T11:20:44.424Z,25.50
2018-05-12T11:23:11.955Z,25.40
2018-05-12T11:25:40.254Z,26.20
2018-05-12T11:28:07.752Z,26.20
2018-05-12T11:30:35.251Z,27.00
2018-05-12T11:33:02.818Z,27.50
2018-05-12T11:35:30.379Z,27.50
2018-05-12T11:37:57.887Z,27.80
2018-05-12T11:40:25.438Z,28.00
2018-05-12T11:42:52.922Z,28.10
2018-05-12T11:45:21.225Z,28.40
2018-05-12T11:47:48.726Z,28.30
2018-05-12T11:50:16.228Z,27.40
2018-05-12T11:52:43.751Z,26.80
2018-05-12T11:55:11.244Z,26.80
2018-05-12T11:57:38.781Z,27.30
2018-05-12T12:00:07.048Z,27.30
2018-05-12T12:02:35.380Z,27.40
2018-05-12T12:05:03.709Z,26.60
2018-05-12T12:07:32.000Z,25.80
2018-05-12T12:09:59.557Z,25.70
2018-05-12T12:12:27.053Z,25.60
2018-05-12T12:14:54.547Z,25.30
2018-05-12T12:17:22.857Z,25.70
2018-05-12T12:19:50.400Z,25.70
2018-05-12T12:22:17.893Z,25.90
2018-05-12T12:24:45.399Z,26.00
2018-05-12T12:27:13.668Z,25.60
2018-05-12T12:29:41.958Z,25.40
2018-05-12T12:32:10.217Z,25.30
2018-05-12T12:34:38.479Z,25.60
2018-05-12T12:37:06.002Z,25.50
2018-05-12T12:39:33.508Z,25.90
2018-05-12T12:42:01.818Z,25.30
2018-05-12T12:44:29.309Z,25.30
2018-05-12T12:46:56.863Z,25.00
2018-05-12T12:49:24.354Z,25.50
2018-05-12T12:51:52.605Z,26.10
2018-05-12T12:54:20.114Z,26.00
2018-05-12T12:56:47.640Z,26.20
2018-05-12T12:59:15.936Z,26.40
2018-05-12T13:01:43.438Z,26.30
2018-05-12T13:04:10.933Z,26.60
2018-05-12T13:06:39.207Z,26.10
2018-05-12T13:09:07.483Z,25.40
2018-05-12T13:11:35.887Z,25.30
2018-05-12T13:14:03.400Z,25.20
2018-05-12T13:16:30.898Z,25.20
2018-05-12T13:18:58.416Z,25.20
2018-05-12T13:21:26.720Z,25.20
2018-05-12T13:23:54.215Z,25.20
2018-05-12T13:26:21.726Z,25.60
2018-05-12T13:28:49.241Z,26.10
2018-05-12T13:31:17.563Z,26.40
2018-05-12T13:33:45.118Z,26.40
2018-05-12T13:36:12.692Z,26.20
2018-05-12T13:38:40.203Z,26.20
2018-05-12T13:41:07.698Z,26.40
2018-05-12T13:43:35.225Z,26.60
2018-05-12T13:46:03.496Z,26.50
2018-05-12T13:48:31.900Z,25.90
2018-05-12T13:50:59.387Z,25.90
2018-05-12T13:53:26.883Z,25.40
2018-05-12T13:55:54.530Z,25.30
2018-05-12T13:58:21.939Z,25.00
2018-05-12T14:00:49.476Z,24.60
2018-05-12T14:03:16.982Z,24.60
2018-05-12T14:05:44.504Z,24.60
2018-05-12T14:08:11.986Z,24.80
2018-05-12T14:10:39.484Z,25.00
2018-05-12T14:13:07.879Z,25.40
2018-05-12T14:15:35.440Z,25.30
2018-05-12T14:18:03.039Z,25.40
2018-05-12T14:20:30.546Z,25.70
2018-05-12T14:22:58.818Z,25.70
2018-05-12T14:25:27.092Z,25.60
2018-05-12T14:27:55.391Z,25.30
2018-05-12T14:30:22.889Z,25.20
2018-05-12T14:32:50.392Z,25.00
2018-05-12T14:35:17.931Z,24.90
2018-05-12T14:37:46.191Z,25.10
2018-05-12T14:40:13.675Z,25.10
2018-05-12T14:42:42.032Z,25.10
2018-05-12T14:45:09.453Z,25.00
2018-05-12T14:47:37.061Z,25.40
2018-05-12T14:50:05.338Z,25.70
2018-05-12T14:52:33.625Z,25.50
2018-05-12T14:55:01.121Z,25.50
2018-05-12T14:57:28.621Z,25.00
2018-05-12T14:59:56.899Z,24.30
2018-05-12T15:02:25.246Z,24.30
2018-05-12T15:04:53.507Z,24.60
2018-05-12T15:07:21.043Z,24.50
2018-05-12T15:09:48.588Z,24.60
2018-05-12T15:12:16.080Z,24.70
2018-05-12T15:14:43.796Z,25.00
2018-05-12T15:17:11.229Z,25.20
2018-05-12T15:19:39.488Z,25.60
2018-05-12T15:22:07.074Z,25.50
2018-05-12T15:24:34.770Z,25.70
2018-05-12T15:27:02.268Z,25.80
2018-05-12T15:29:29.869Z,25.70
2018-05-12T15:31:57.368Z,25.40
2018-05-12T15:34:24.867Z,25.10
2018-05-12T15:36:52.405Z,25.10
2018-05-12T15:39:20.693Z,25.20
2018-05-12T15:41:48.179Z,25.20
2018-05-12T15:44:15.702Z,25.40
2018-05-12T15:46:43.968Z,25.50
2018-05-12T15:49:12.231Z,25.50
2018-05-12T15:51:39.744Z,25.50
2018-05-12T15:54:07.391Z,25.50
2018-05-12T15:56:34.900Z,25.60
2018-05-12T15:59:02.397Z,25.40
2018-05-12T16:01:29.928Z,25.30
2018-05-12T16:03:58.183Z,24.70
2018-05-12T16:06:25.679Z,24.70
2018-05-12T16:08:53.206Z,25.00
2018-05-12T16:11:21.492Z,25.30
2018-05-12T16:13:49.770Z,25.20
2018-05-12T16:16:18.036Z,25.10
2018-05-12T16:18:46.317Z,24.90
2018-05-12T16:21:14.599Z,24.90
2018-05-12T16:23:42.134Z,24.90
2018-05-12T16:26:10.408Z,24.70
2018-05-12T16:28:37.894Z,24.60
2018-05-12T16:31:05.434Z,24.60
2018-05-12T16:33:33.738Z,24.70
2018-05-12T16:36:01.323Z,24.70
2018-05-12T16:38:28.820Z,24.70
2018-05-12T16:40:57.083Z,24.70
2018-05-12T16:43:24.662Z,24.70
2018-05-12T16:45:52.951Z,24.60
2018-05-12T16:48:20.446Z,24.50
2018-05-12T16:50:48.011Z,24.60
2018-05-12T16:53:15.508Z,24.50
2018-05-12T16:55:43.013Z,24.50
2018-05-12T16:58:10.502Z,24.40
2018-05-12T17:00:38.793Z,24.40
2018-05-12T17:03:07.043Z,24.20
2018-05-12T17:05:34.541Z,24.20
2018-05-12T17:08:02.060Z,24.10
2018-05-12T17:10:29.638Z,24.00
2018-05-12T17:12:57.926Z,24.10
2018-05-12T17:15:25.468Z,24.10
2018-05-12T17:17:53.732Z,24.20
2018-05-12T17:20:21.994Z,24.30
2018-05-12T17:22:49.574Z,24.20
2018-05-12T17:25:17.818Z,23.90
2018-05-12T17:27:45.329Z,23.80
2018-05-12T17:30:12.828Z,23.90
2018-05-12T17:32:40.329Z,23.90
2018-05-12T17:35:07.883Z,23.80
2018-05-12T17:37:35.439Z,23.80
2018-05-12T17:40:02.939Z,23.90
2018-05-12T17:42:30.417Z,24.00
2018-05-12T17:44:58.017Z,23.90
2018-05-12T17:47:25.520Z,23.80
2018-05-12T17:49:53.039Z,23.80
2018-05-12T17:52:20.573Z,23.70
2018-05-12T17:54:48.074Z,23.70
2018-05-12T17:57:15.586Z,23.60
2018-05-12T17:59:43.851Z,23.80
2018-05-12T18:02:12.118Z,23.90
2018-05-12T18:04:39.605Z,23.90
2018-05-12T18:07:07.119Z,23.70
2018-05-12T18:09:34.710Z,23.60
2018-05-12T18:12:02.236Z,23.50
2018-05-12T18:14:29.827Z,23.50
2018-05-12T18:16:57.392Z,23.30
2018-05-12T18:19:24.882Z,23.30
2018-05-12T18:21:52.400Z,23.20
2018-05-12T18:24:19.891Z,23.30
2018-05-12T18:26:47.424Z,23.30
2018-05-12T18:29:14.918Z,23.30
2018-05-12T18:31:42.416Z,23.30
2018-05-12T18:34:10.691Z,23.20
2018-05-12T18:36:38.934Z,23.10
2018-05-12T18:39:06.476Z,23.00
2018-05-12T18:41:33.963Z,22.90
2018-05-12T18:44:01.452Z,23.00
2018-05-12T18:46:28.977Z,22.80
2018-05-12T18:48:57.243Z,22.30
2018-05-12T18:51:24.755Z,22.30
2018-05-12T18:53:52.253Z,22.00
2018-05-12T18:56:19.852Z,21.90
2018-05-12T18:58:47.348Z,21.60
2018-05-12T19:01:14.874Z,21.40
2018-05-12T19:03:42.378Z,21.40
2018-05-12T19:06:09.972Z,21.40
2018-05-12T19:08:37.464Z,21.20
2018-05-12T19:11:04.982Z,21.20
2018-05-12T19:13:32.524Z,21.30
2018-05-12T19:16:00.787Z,21.20
2018-05-12T19:18:28.373Z,21.10
2018-05-12T19:20:55.918Z,21.10
2018-05-12T19:23:24.165Z,21.10
2018-05-12T19:25:51.645Z,21.10
2018-05-12T19:28:20.031Z,20.80
2018-05-12T19:30:47.513Z,20.70
2018-05-12T19:33:15.028Z,20.70
2018-05-12T19:35:43.327Z,20.80
2018-05-12T19:38:10.849Z,20.70
2018-05-12T19:40:38.344Z,20.80
2018-05-12T19:43:05.893Z,20.60
2018-05-12T19:45:33.390Z,20.70
2018-05-12T19:48:00.916Z,20.60
2018-05-12T19:50:28.429Z,20.70
2018-05-12T19:52:56.040Z,20.60
2018-05-12T19:55:23.545Z,20.70
2018-05-12T19:57:51.049Z,20.70
2018-05-12T20:00:18.572Z,20.70
2018-05-12T20:02:46.886Z,20.50
2018-05-12T20:05:14.439Z,20.50
2018-05-12T20:07:41.969Z,20.50
2018-05-12T20:10:10.349Z,20.30
2018-05-12T20:12:38.640Z,20.30
2018-05-12T20:15:06.199Z,20.20
2018-05-12T20:17:33.686Z,20.30
2018-05-12T20:20:01.200Z,20.30
2018-05-12T20:22:29.454Z,20.10
2018-05-12T20:24:56.976Z,20.00
2018-05-12T20:27:24.469Z,20.10
2018-05-12T20:29:52.738Z,19.90
2018-05-12T20:32:20.267Z,19.90
2018-05-12T20:34:47.796Z,19.90
2018-05-12T20:37:15.330Z,19.80
2018-05-12T20:39:42.831Z,19.60
2018-05-12T20:42:10.338Z,19.50
2018-05-12T20:44:38.618Z,19.40
2018-05-12T20:47:06.893Z,19.20
2018-05-12T20:49:35.153Z,19.20
2018-05-12T20:52:03.424Z,19.20
2018-05-12T20:54:31.826Z,19.20
2018-05-12T20:56:59.319Z,19.10
2018-05-12T20:59:26.941Z,19.20
2018-05-12T21:01:54.489Z,19.30
2018-05-12T21:04:22.762Z,19.30
2018-05-12T21:06:51.039Z,19.20
2018-05-12T21:09:19.331Z,19.10
2018-05-12T21:11:46.821Z,19.00
2018-05-12T21:14:14.380Z,18.90
2018-05-12T21:16:41.900Z,18.90
2018-05-12T21:19:09.408Z,19.00
2018-05-12T21:21:36.909Z,19.00
2018-05-12T21:24:04.436Z,19.00
2018-05-12T21:26:31.950Z,18.90
2018-05-12T21:28:59.471Z,18.90
2018-05-12T21:31:27.025Z,18.80
2018-05-12T21:33:55.293Z,18.60
2018-05-12T21:36:22.790Z,18.60
2018-05-12T21:38:50.378Z,18.70
2018-05-12T21:41:17.871Z,18.80
2018-05-12T21:43:46.146Z,18.50
2018-05-12T21:46:14.408Z,18.30
2018-05-12T21:48:42.693Z,18.20
2018-05-12T21:51:10.999Z,18.30
2018-05-12T21:53:38.473Z,18.30
2018-05-12T21:56:05.984Z,18.20
2018-05-12T21:58:33.482Z,18.00
2018-05-12T22:01:00.975Z,17.90
2018-05-12T22:03:28.482Z,17.90
2018-05-12T22:05:56.011Z,17.90
2018-05-12T22:08:23.539Z,17.90
2018-05-12T22:10:51.026Z,17.90
2018-05-12T22:13:18.518Z,18.00
2018-05-12T22:15:46.021Z,17.90
2018-05-12T22:18:14.332Z,17.90
2018-05-12T22:20:41.818Z,17.90
2018-05-12T22:23:09.302Z,17.90
2018-05-12T22:25:36.820Z,17.90
2018-05-12T22:28:04.337Z,17.90
2018-05-12T22:30:31.945Z,17.70
2018-05-12T22:32:59.395Z,17.70
2018-05-12T22:35:26.906Z,17.70
2018-05-12T22:37:55.163Z,17.80
2018-05-12T22:40:23.443Z,17.70
2018-05-12T22:42:51.713Z,17.70
2018-05-12T22:45:20.016Z,17.70
2018-05-12T22:47:47.550Z,17.70
2018-05-12T22:50:15.819Z,17.50
2018-05-12T22:52:43.390Z,17.40
2018-05-12T22:55:11.652Z,17.40
2018-05-12T22:57:39.946Z,17.40
2018-05-12T23:00:07.900Z,17.30
2018-05-12T23:02:36.178Z,17.30
2018-05-12T23:05:04.460Z,17.30
2018-05-12T23:07:32.011Z,17.30
2018-05-12T23:10:00.292Z,17.10
2018-05-12T23:12:27.845Z,17.00
2018-05-12T23:14:56.140Z,17.00
2018-05-12T23:17:23.660Z,17.00
2018-05-12T23:19:51.934Z,16.80
2018-05-12T23:22:19.505Z,16.80
2018-05-12T23:24:47.771Z,16.70
2018-05-12T23:27:16.162Z,16.70
2018-05-12T23:29:44.417Z,16.60
2018-05-12T23:32:11.902Z,16.50
2018-05-12T23:34:39.419Z,16.50
2018-05-12T23:37:06.908Z,16.30
2018-05-12T23:39:34.469Z,16.30
2018-05-12T23:42:01.981Z,16.20
2018-05-12T23:44:29.531Z,16.20
2018-05-12T23:46:57.051Z,16.10
2018-05-12T23:49:24.538Z,16.00
2018-05-12T23:51:52.023Z,16.00
2018-05-12T23:54:19.529Z,15.90
2018-05-12T23:56:47.051Z,15.90
2018-05-12T23:59:15.343Z,15.80
